PGT291 LTFJ-LQSA
Flight info
| Callsign | PGT291 |
|---|---|
| Flight time | 1h 25m |
| Altitude | 36000 |
| Route | FENER DCT GOL Y520 LUKOV Q8 DOLAP DCT PODOB |
| Aircraft | A320/M-SDE3FGHIRWY/LB1 |
Departure
| Time | 2026-04-17 06:47 |
|---|---|
| Airport | Istanbul Sabiha Gökçen International Airport (LTFJ) |
Arrival
| Time | 2026-04-17 08:12 |
|---|---|
| Airport | Sarajevo International Airport (LQSA) |
| Time | Latitude | Longitude | Altitude | Speed | Heading |
|---|---|---|---|---|---|
| 2026-04-17 06:19 | 40.89709 | 29.32424 | 306 ft | 0 kts | 63° |
| 2026-04-17 06:38 | 40.89706 | 29.32415 | 333 ft | 4 kts | 63° |
| 2026-04-17 06:38 | 40.89693 | 29.32384 | 329 ft | 4 kts | 60° |
| 2026-04-17 06:38 | 40.89679 | 29.32354 | 305 ft | 4 kts | 54° |
| 2026-04-17 06:38 | 40.89663 | 29.32327 | 306 ft | 4 kts | 37° |
| 2026-04-17 06:39 | 40.89642 | 29.32316 | 305 ft | 3 kts | 336° |
| 2026-04-17 06:39 | 40.89636 | 29.32320 | 304 ft | 0 kts | 334° |
| 2026-04-17 06:41 | 40.89644 | 29.32315 | 305 ft | 4 kts | 334° |
| 2026-04-17 06:41 | 40.89687 | 29.32287 | 306 ft | 10 kts | 334° |
| 2026-04-17 06:41 | 40.89759 | 29.32241 | 308 ft | 13 kts | 334° |
| 2026-04-17 06:42 | 40.89847 | 29.32184 | 311 ft | 15 kts | 334° |
| 2026-04-17 06:42 | 40.89952 | 29.32116 | 314 ft | 18 kts | 333° |
| 2026-04-17 06:42 | 40.90059 | 29.32032 | 321 ft | 18 kts | 302° |
| 2026-04-17 06:42 | 40.90021 | 29.31865 | 320 ft | 22 kts | 244° |
| 2026-04-17 06:43 | 40.89947 | 29.31665 | 320 ft | 27 kts | 244° |
| 2026-04-17 06:43 | 40.89860 | 29.31428 | 320 ft | 31 kts | 244° |
| 2026-04-17 06:43 | 40.89760 | 29.31156 | 316 ft | 36 kts | 244° |
| 2026-04-17 06:43 | 40.89648 | 29.30852 | 321 ft | 38 kts | 244° |
| 2026-04-17 06:44 | 40.89531 | 29.30530 | 321 ft | 41 kts | 243° |
| 2026-04-17 06:44 | 40.89465 | 29.30283 | 321 ft | 14 kts | 297° |
| 2026-04-17 06:44 | 40.89540 | 29.30224 | 321 ft | 14 kts | 323° |
| 2026-04-17 06:44 | 40.89549 | 29.30089 | 320 ft | 19 kts | 244° |
| 2026-04-17 06:45 | 40.89487 | 29.29917 | 320 ft | 23 kts | 244° |
| 2026-04-17 06:45 | 40.89410 | 29.29704 | 321 ft | 28 kts | 244° |
| 2026-04-17 06:45 | 40.89319 | 29.29459 | 322 ft | 32 kts | 243° |
| 2026-04-17 06:45 | 40.89282 | 29.29323 | 322 ft | 8 kts | 207° |
| 2026-04-17 06:46 | 40.89275 | 29.29343 | 322 ft | 4 kts | 60° |
| 2026-04-17 06:46 | 40.89300 | 29.29411 | 322 ft | 21 kts | 64° |
| 2026-04-17 06:46 | 40.89480 | 29.29897 | 321 ft | 93 kts | 64° |
| 2026-04-17 06:46 | 40.89841 | 29.30881 | 322 ft | 145 kts | 63° |
| 2026-04-17 06:47 | 40.90337 | 29.32204 | 603 ft | 167 kts | 64° |
| 2026-04-17 06:47 | 40.90840 | 29.33562 | 1354 ft | 165 kts | 63° |
| 2026-04-17 06:47 | 40.91343 | 29.34922 | 2103 ft | 165 kts | 63° |
| 2026-04-17 06:47 | 40.91874 | 29.36359 | 2487 ft | 184 kts | 64° |
| 2026-04-17 06:48 | 40.92468 | 29.37976 | 2764 ft | 208 kts | 64° |
| 2026-04-17 06:48 | 40.93142 | 29.39799 | 3167 ft | 233 kts | 64° |
| 2026-04-17 06:48 | 40.93884 | 29.41805 | 3713 ft | 249 kts | 64° |
| 2026-04-17 06:48 | 40.94733 | 29.43837 | 4544 ft | 256 kts | 51° |
| 2026-04-17 06:49 | 40.96225 | 29.45146 | 5341 ft | 267 kts | 17° |
| 2026-04-17 06:49 | 40.98094 | 29.45096 | 6151 ft | 278 kts | 342° |
| 2026-04-17 06:49 | 40.99711 | 29.43675 | 6937 ft | 285 kts | 313° |
| 2026-04-17 06:49 | 41.00844 | 29.41507 | 7764 ft | 289 kts | 297° |
| 2026-04-17 06:50 | 41.01620 | 29.39034 | 8588 ft | 292 kts | 288° |
| 2026-04-17 06:50 | 41.02133 | 29.36424 | 9474 ft | 294 kts | 280° |
| 2026-04-17 06:50 | 41.02375 | 29.33727 | 10282 ft | 296 kts | 271° |
| 2026-04-17 06:50 | 41.02297 | 29.30961 | 10768 ft | 312 kts | 265° |
| 2026-04-17 06:51 | 41.02377 | 29.28032 | 11055 ft | 332 kts | 279° |
| 2026-04-17 06:51 | 41.03028 | 29.25066 | 11700 ft | 340 kts | 292° |
| 2026-04-17 06:51 | 41.04228 | 29.22352 | 12430 ft | 345 kts | 308° |
| 2026-04-17 06:51 | 41.05950 | 29.20122 | 13173 ft | 349 kts | 322° |
| 2026-04-17 06:52 | 41.07989 | 29.18342 | 13909 ft | 352 kts | 325° |
| 2026-04-17 06:52 | 41.10010 | 29.16495 | 14572 ft | 354 kts | 319° |
| 2026-04-17 06:52 | 41.11740 | 29.14176 | 15222 ft | 354 kts | 307° |
| 2026-04-17 06:52 | 41.13063 | 29.11428 | 15878 ft | 355 kts | 294° |
| 2026-04-17 06:53 | 41.13930 | 29.08359 | 16559 ft | 355 kts | 284° |
| 2026-04-17 06:53 | 41.14563 | 29.05187 | 17235 ft | 357 kts | 284° |
| 2026-04-17 06:53 | 41.15216 | 29.02000 | 17891 ft | 359 kts | 284° |
| 2026-04-17 06:53 | 41.15881 | 28.98795 | 18483 ft | 362 kts | 284° |
| 2026-04-17 06:54 | 41.16552 | 28.95560 | 19012 ft | 365 kts | 284° |
| 2026-04-17 06:54 | 41.17226 | 28.92300 | 19567 ft | 367 kts | 284° |
| 2026-04-17 06:54 | 41.17900 | 28.89016 | 20062 ft | 371 kts | 284° |
| 2026-04-17 06:54 | 41.18576 | 28.85705 | 20613 ft | 372 kts | 284° |
| 2026-04-17 06:55 | 41.19254 | 28.82379 | 21112 ft | 375 kts | 284° |
| 2026-04-17 06:55 | 41.19937 | 28.79019 | 21650 ft | 377 kts | 284° |
| 2026-04-17 06:55 | 41.20621 | 28.75645 | 22144 ft | 380 kts | 284° |
| 2026-04-17 06:55 | 41.21312 | 28.72246 | 22579 ft | 384 kts | 284° |
| 2026-04-17 06:56 | 41.22014 | 28.68805 | 23073 ft | 386 kts | 284° |
| 2026-04-17 06:56 | 41.22717 | 28.65337 | 23514 ft | 390 kts | 284° |
| 2026-04-17 06:56 | 41.23423 | 28.61829 | 23851 ft | 395 kts | 284° |
| 2026-04-17 06:56 | 41.24134 | 28.58307 | 24308 ft | 395 kts | 283° |
| 2026-04-17 06:57 | 41.24848 | 28.54763 | 24674 ft | 398 kts | 283° |
| 2026-04-17 06:57 | 41.25551 | 28.51252 | 25141 ft | 398 kts | 283° |
| 2026-04-17 06:57 | 41.26262 | 28.47690 | 25495 ft | 401 kts | 283° |
| 2026-04-17 06:57 | 41.26978 | 28.44091 | 25819 ft | 404 kts | 283° |
| 2026-04-17 06:58 | 41.27699 | 28.40468 | 26138 ft | 407 kts | 283° |
| 2026-04-17 06:58 | 41.28514 | 28.36846 | 26488 ft | 411 kts | 290° |
| 2026-04-17 06:58 | 41.29754 | 28.33403 | 26854 ft | 415 kts | 299° |
| 2026-04-17 06:58 | 41.31282 | 28.30146 | 27253 ft | 416 kts | 301° |
| 2026-04-17 06:59 | 41.32818 | 28.26869 | 27549 ft | 420 kts | 300° |
| 2026-04-17 06:59 | 41.34362 | 28.23556 | 27903 ft | 421 kts | 300° |
| 2026-04-17 06:59 | 41.35907 | 28.20232 | 28268 ft | 423 kts | 300° |
| 2026-04-17 06:59 | 41.37457 | 28.16897 | 28651 ft | 424 kts | 300° |
| 2026-04-17 07:00 | 41.39012 | 28.13549 | 29010 ft | 426 kts | 299° |
| 2026-04-17 07:00 | 41.40574 | 28.10192 | 29354 ft | 428 kts | 300° |
| 2026-04-17 07:00 | 41.42149 | 28.06804 | 29618 ft | 432 kts | 300° |
| 2026-04-17 07:00 | 41.43738 | 28.03381 | 29953 ft | 433 kts | 300° |
| 2026-04-17 07:01 | 41.45320 | 27.99962 | 30296 ft | 434 kts | 300° |
| 2026-04-17 07:01 | 41.46904 | 27.96525 | 30551 ft | 436 kts | 300° |
| 2026-04-17 07:01 | 41.48496 | 27.93069 | 30728 ft | 439 kts | 300° |
| 2026-04-17 07:01 | 41.50101 | 27.89585 | 30947 ft | 442 kts | 300° |
| 2026-04-17 07:02 | 41.51712 | 27.86092 | 31224 ft | 442 kts | 299° |
| 2026-04-17 07:02 | 41.53325 | 27.82596 | 31653 ft | 440 kts | 298° |
| 2026-04-17 07:02 | 41.54922 | 27.79128 | 32100 ft | 438 kts | 299° |
| 2026-04-17 07:02 | 41.56515 | 27.75658 | 32432 ft | 438 kts | 300° |
| 2026-04-17 07:03 | 41.58084 | 27.72228 | 32781 ft | 437 kts | 298° |
| 2026-04-17 07:03 | 41.59668 | 27.68770 | 33203 ft | 434 kts | 298° |
| 2026-04-17 07:03 | 41.61245 | 27.65323 | 33527 ft | 435 kts | 299° |
| 2026-04-17 07:03 | 41.62818 | 27.61878 | 33849 ft | 434 kts | 298° |
| 2026-04-17 07:04 | 41.64388 | 27.58434 | 34179 ft | 434 kts | 300° |
| 2026-04-17 07:04 | 41.65958 | 27.54984 | 34414 ft | 435 kts | 299° |
| 2026-04-17 07:04 | 41.67532 | 27.51530 | 34705 ft | 434 kts | 299° |
| 2026-04-17 07:04 | 41.69100 | 27.48089 | 34980 ft | 433 kts | 299° |
| 2026-04-17 07:05 | 41.70671 | 27.44637 | 35243 ft | 433 kts | 299° |
| 2026-04-17 07:05 | 41.72234 | 27.41199 | 35493 ft | 433 kts | 300° |
| 2026-04-17 07:05 | 41.73794 | 27.37754 | 35734 ft | 433 kts | 300° |
| 2026-04-17 07:05 | 41.75353 | 27.34315 | 35992 ft | 432 kts | 299° |
| 2026-04-17 07:06 | 41.76912 | 27.30875 | 36064 ft | 429 kts | 300° |
| 2026-04-17 07:06 | 41.79992 | 27.24065 | 36082 ft | 426 kts | 300° |
| 2026-04-17 07:07 | 41.83026 | 27.17319 | 36077 ft | 424 kts | 299° |
| 2026-04-17 07:07 | 41.86064 | 27.10535 | 36087 ft | 424 kts | 299° |
| 2026-04-17 07:08 | 41.89108 | 27.03756 | 36084 ft | 423 kts | 298° |
| 2026-04-17 07:08 | 41.91617 | 26.98164 | 36089 ft | 420 kts | 300° |
| 2026-04-17 07:09 | 41.94649 | 26.91381 | 36086 ft | 421 kts | 299° |
| 2026-04-17 07:09 | 41.97657 | 26.84628 | 36084 ft | 421 kts | 298° |
| 2026-04-17 07:10 | 42.00646 | 26.77914 | 36101 ft | 421 kts | 299° |
| 2026-04-17 07:10 | 42.03673 | 26.71097 | 36111 ft | 422 kts | 299° |
| 2026-04-17 07:11 | 42.06653 | 26.64362 | 36115 ft | 421 kts | 299° |
| 2026-04-17 07:11 | 42.09646 | 26.57582 | 36116 ft | 421 kts | 299° |
| 2026-04-17 07:12 | 42.12636 | 26.50794 | 36118 ft | 421 kts | 299° |
| 2026-04-17 07:12 | 42.15627 | 26.43991 | 36113 ft | 423 kts | 300° |
| 2026-04-17 07:13 | 42.18623 | 26.37160 | 36114 ft | 423 kts | 299° |
| 2026-04-17 07:13 | 42.21616 | 26.30313 | 36126 ft | 424 kts | 299° |
| 2026-04-17 07:14 | 42.24619 | 26.23458 | 36126 ft | 424 kts | 299° |
| 2026-04-17 07:14 | 42.27607 | 26.16602 | 36131 ft | 424 kts | 299° |
| 2026-04-17 07:15 | 42.30591 | 26.09731 | 36132 ft | 424 kts | 299° |
| 2026-04-17 07:15 | 42.33572 | 26.02865 | 36137 ft | 423 kts | 299° |
| 2026-04-17 07:16 | 42.36535 | 25.96007 | 36134 ft | 423 kts | 299° |
| 2026-04-17 07:16 | 42.39502 | 25.89127 | 36131 ft | 423 kts | 299° |
| 2026-04-17 07:17 | 42.42446 | 25.82294 | 36127 ft | 423 kts | 298° |
| 2026-04-17 07:17 | 42.46880 | 25.71955 | 36124 ft | 423 kts | 298° |
| 2026-04-17 07:18 | 42.49832 | 25.65051 | 36128 ft | 424 kts | 298° |
| 2026-04-17 07:18 | 42.52785 | 25.58154 | 36125 ft | 424 kts | 298° |
| 2026-04-17 07:19 | 42.55741 | 25.51228 | 36114 ft | 424 kts | 298° |
| 2026-04-17 07:19 | 42.58681 | 25.44298 | 36114 ft | 423 kts | 298° |
| 2026-04-17 07:20 | 42.61620 | 25.37372 | 36115 ft | 423 kts | 298° |
| 2026-04-17 07:20 | 42.64557 | 25.30441 | 36116 ft | 423 kts | 298° |
| 2026-04-17 07:21 | 42.67478 | 25.23510 | 36114 ft | 422 kts | 298° |
| 2026-04-17 07:21 | 42.70394 | 25.16577 | 36111 ft | 422 kts | 298° |
| 2026-04-17 07:22 | 42.73289 | 25.09686 | 36103 ft | 422 kts | 298° |
| 2026-04-17 07:22 | 42.76199 | 25.02753 | 36111 ft | 421 kts | 298° |
| 2026-04-17 07:23 | 42.79093 | 24.95824 | 36109 ft | 420 kts | 298° |
| 2026-04-17 07:23 | 42.81976 | 24.88897 | 36108 ft | 420 kts | 298° |
| 2026-04-17 07:24 | 42.84860 | 24.81969 | 36108 ft | 420 kts | 298° |
| 2026-04-17 07:24 | 42.87742 | 24.75037 | 36103 ft | 421 kts | 298° |
| 2026-04-17 07:25 | 42.90625 | 24.68082 | 36103 ft | 421 kts | 298° |
| 2026-04-17 07:25 | 42.93494 | 24.61123 | 36101 ft | 421 kts | 298° |
| 2026-04-17 07:26 | 42.96367 | 24.54146 | 36100 ft | 421 kts | 298° |
| 2026-04-17 07:26 | 42.99223 | 24.47209 | 36107 ft | 421 kts | 298° |
| 2026-04-17 07:27 | 43.02084 | 24.40232 | 36113 ft | 421 kts | 298° |
| 2026-04-17 07:27 | 43.04942 | 24.33251 | 36113 ft | 421 kts | 298° |
| 2026-04-17 07:28 | 43.07796 | 24.26255 | 36119 ft | 421 kts | 298° |
| 2026-04-17 07:28 | 43.10673 | 24.19294 | 36119 ft | 421 kts | 300° |
| 2026-04-17 07:29 | 43.13789 | 24.12496 | 36122 ft | 421 kts | 301° |
| 2026-04-17 07:29 | 43.16976 | 24.05770 | 36120 ft | 421 kts | 301° |
| 2026-04-17 07:30 | 43.20114 | 23.99009 | 36135 ft | 420 kts | 301° |
| 2026-04-17 07:30 | 43.23196 | 23.92240 | 36136 ft | 419 kts | 300° |
| 2026-04-17 07:31 | 43.26276 | 23.85446 | 36135 ft | 419 kts | 300° |
| 2026-04-17 07:31 | 43.28568 | 23.78175 | 36133 ft | 416 kts | 282° |
| 2026-04-17 07:32 | 43.29397 | 23.70338 | 36121 ft | 415 kts | 276° |
| 2026-04-17 07:32 | 43.30095 | 23.62516 | 36123 ft | 415 kts | 276° |
| 2026-04-17 07:33 | 43.30798 | 23.54641 | 36122 ft | 415 kts | 276° |
| 2026-04-17 07:33 | 43.31493 | 23.46771 | 36120 ft | 415 kts | 276° |
| 2026-04-17 07:34 | 43.32179 | 23.38899 | 36122 ft | 415 kts | 276° |
| 2026-04-17 07:34 | 43.32859 | 23.31019 | 36111 ft | 416 kts | 276° |
| 2026-04-17 07:35 | 43.33541 | 23.23121 | 36115 ft | 416 kts | 276° |
| 2026-04-17 07:35 | 43.34222 | 23.15227 | 36118 ft | 416 kts | 276° |
| 2026-04-17 07:36 | 43.34896 | 23.07305 | 36121 ft | 417 kts | 276° |
| 2026-04-17 07:36 | 43.35553 | 22.99392 | 36125 ft | 417 kts | 276° |
| 2026-04-17 07:37 | 43.36206 | 22.91475 | 36123 ft | 417 kts | 276° |
| 2026-04-17 07:37 | 43.36860 | 22.83607 | 36127 ft | 417 kts | 276° |
| 2026-04-17 07:38 | 43.37506 | 22.75689 | 36126 ft | 417 kts | 276° |
| 2026-04-17 07:38 | 43.38013 | 22.67746 | 36125 ft | 417 kts | 274° |
| 2026-04-17 07:39 | 43.38436 | 22.59796 | 36126 ft | 417 kts | 274° |
| 2026-04-17 07:39 | 43.38872 | 22.51843 | 36124 ft | 417 kts | 274° |
| 2026-04-17 07:40 | 43.39321 | 22.43953 | 36120 ft | 416 kts | 274° |
| 2026-04-17 07:40 | 43.39770 | 22.36011 | 36123 ft | 416 kts | 274° |
| 2026-04-17 07:41 | 43.40210 | 22.28068 | 36123 ft | 416 kts | 274° |
| 2026-04-17 07:41 | 43.40646 | 22.20132 | 36123 ft | 416 kts | 274° |
| 2026-04-17 07:42 | 43.41077 | 22.12188 | 36125 ft | 416 kts | 274° |
| 2026-04-17 07:42 | 43.41501 | 22.04246 | 36127 ft | 417 kts | 274° |
| 2026-04-17 07:43 | 43.41915 | 21.96290 | 36120 ft | 417 kts | 274° |
| 2026-04-17 07:43 | 43.42335 | 21.88340 | 36126 ft | 417 kts | 274° |
| 2026-04-17 07:44 | 43.42746 | 21.80375 | 36127 ft | 417 kts | 274° |
| 2026-04-17 07:44 | 43.43148 | 21.72414 | 36127 ft | 417 kts | 274° |
| 2026-04-17 07:45 | 43.43539 | 21.64507 | 36129 ft | 417 kts | 274° |
| 2026-04-17 07:45 | 43.43933 | 21.56561 | 36130 ft | 417 kts | 274° |
| 2026-04-17 07:46 | 43.44317 | 21.48588 | 36129 ft | 417 kts | 274° |
| 2026-04-17 07:46 | 43.44696 | 21.40629 | 36133 ft | 417 kts | 274° |
| 2026-04-17 07:47 | 43.45065 | 21.32654 | 36138 ft | 417 kts | 274° |
| 2026-04-17 07:47 | 43.45434 | 21.24688 | 36138 ft | 417 kts | 274° |
| 2026-04-17 07:48 | 43.45803 | 21.16732 | 36144 ft | 417 kts | 274° |
| 2026-04-17 07:48 | 43.46162 | 21.08766 | 36137 ft | 417 kts | 274° |
| 2026-04-17 07:49 | 43.46510 | 21.00787 | 36141 ft | 418 kts | 274° |
| 2026-04-17 07:49 | 43.46862 | 20.92801 | 36138 ft | 418 kts | 274° |
| 2026-04-17 07:50 | 43.47201 | 20.84813 | 36136 ft | 418 kts | 274° |
| 2026-04-17 07:50 | 43.47535 | 20.76818 | 36138 ft | 418 kts | 274° |
| 2026-04-17 07:51 | 43.47811 | 20.70181 | 36140 ft | 418 kts | 274° |
| 2026-04-17 07:51 | 43.48193 | 20.60879 | 36135 ft | 418 kts | 274° |
| 2026-04-17 07:52 | 43.48463 | 20.54159 | 36139 ft | 419 kts | 274° |
| 2026-04-17 07:52 | 43.48782 | 20.46152 | 36141 ft | 419 kts | 274° |
| 2026-04-17 07:53 | 43.49091 | 20.38141 | 36148 ft | 419 kts | 274° |
| 2026-04-17 07:53 | 43.49390 | 20.30159 | 36143 ft | 420 kts | 274° |
| 2026-04-17 07:54 | 43.49686 | 20.22139 | 36154 ft | 419 kts | 274° |
| 2026-04-17 07:54 | 43.49986 | 20.14060 | 35940 ft | 421 kts | 274° |
| 2026-04-17 07:55 | 43.50135 | 20.09989 | 34915 ft | 430 kts | 273° |
| 2026-04-17 07:55 | 43.50283 | 20.05859 | 34218 ft | 432 kts | 273° |
| 2026-04-17 07:55 | 43.50427 | 20.01728 | 33580 ft | 429 kts | 273° |
| 2026-04-17 07:55 | 43.50565 | 19.97703 | 32985 ft | 425 kts | 273° |
| 2026-04-17 07:56 | 43.50704 | 19.93652 | 32407 ft | 422 kts | 273° |
| 2026-04-17 07:56 | 43.50843 | 19.89626 | 31845 ft | 418 kts | 273° |
| 2026-04-17 07:56 | 43.50983 | 19.85641 | 31309 ft | 415 kts | 273° |
| 2026-04-17 07:56 | 43.51119 | 19.81682 | 30776 ft | 411 kts | 273° |
| 2026-04-17 07:57 | 43.51249 | 19.77765 | 30257 ft | 408 kts | 273° |
| 2026-04-17 07:57 | 43.51378 | 19.73874 | 29580 ft | 402 kts | 274° |
| 2026-04-17 07:57 | 43.51506 | 19.70044 | 28582 ft | 397 kts | 274° |
| 2026-04-17 07:57 | 43.51627 | 19.66264 | 27649 ft | 392 kts | 273° |
| 2026-04-17 07:58 | 43.51745 | 19.62544 | 26737 ft | 386 kts | 273° |
| 2026-04-17 07:58 | 43.51857 | 19.58875 | 25847 ft | 381 kts | 274° |
| 2026-04-17 07:58 | 43.51969 | 19.55242 | 24955 ft | 378 kts | 274° |
| 2026-04-17 07:58 | 43.52079 | 19.51640 | 24105 ft | 374 kts | 274° |
| 2026-04-17 07:59 | 43.52188 | 19.48075 | 23212 ft | 371 kts | 274° |
| 2026-04-17 07:59 | 43.52293 | 19.44549 | 22325 ft | 366 kts | 274° |
| 2026-04-17 07:59 | 43.52398 | 19.41076 | 21500 ft | 361 kts | 273° |
| 2026-04-17 07:59 | 43.52500 | 19.37646 | 20710 ft | 356 kts | 273° |
| 2026-04-17 08:00 | 43.52601 | 19.34256 | 19921 ft | 351 kts | 273° |
| 2026-04-17 08:00 | 43.52699 | 19.30924 | 19189 ft | 346 kts | 273° |
| 2026-04-17 08:00 | 43.52795 | 19.27617 | 18451 ft | 342 kts | 273° |
| 2026-04-17 08:00 | 43.52888 | 19.24366 | 17633 ft | 338 kts | 273° |
| 2026-04-17 08:01 | 43.52979 | 19.21188 | 16951 ft | 331 kts | 274° |
| 2026-04-17 08:01 | 43.53067 | 19.18082 | 16566 ft | 317 kts | 274° |
| 2026-04-17 08:01 | 43.53179 | 19.15114 | 16200 ft | 304 kts | 278° |
| 2026-04-17 08:01 | 43.53623 | 19.12309 | 15849 ft | 299 kts | 288° |
| 2026-04-17 08:02 | 43.54217 | 19.09562 | 15494 ft | 299 kts | 288° |
| 2026-04-17 08:02 | 43.54807 | 19.06819 | 15143 ft | 299 kts | 287° |
| 2026-04-17 08:02 | 43.55397 | 19.04060 | 14792 ft | 300 kts | 287° |
| 2026-04-17 08:02 | 43.55984 | 19.01298 | 14438 ft | 301 kts | 287° |
| 2026-04-17 08:03 | 43.56570 | 18.98532 | 14084 ft | 302 kts | 288° |
| 2026-04-17 08:03 | 43.57159 | 18.95750 | 13701 ft | 303 kts | 288° |
| 2026-04-17 08:03 | 43.57749 | 18.92959 | 13324 ft | 302 kts | 288° |
| 2026-04-17 08:03 | 43.58338 | 18.90179 | 12964 ft | 302 kts | 288° |
| 2026-04-17 08:04 | 43.58922 | 18.87408 | 12611 ft | 300 kts | 289° |
| 2026-04-17 08:04 | 43.59507 | 18.84641 | 12252 ft | 300 kts | 289° |
| 2026-04-17 08:04 | 43.60090 | 18.81872 | 11877 ft | 300 kts | 288° |
| 2026-04-17 08:04 | 43.60670 | 18.79102 | 11508 ft | 299 kts | 288° |
| 2026-04-17 08:05 | 43.61246 | 18.76345 | 11133 ft | 299 kts | 289° |
| 2026-04-17 08:05 | 43.61824 | 18.73592 | 10743 ft | 298 kts | 290° |
| 2026-04-17 08:05 | 43.62402 | 18.70851 | 10368 ft | 298 kts | 289° |
| 2026-04-17 08:05 | 43.62969 | 18.68158 | 9992 ft | 298 kts | 289° |
| 2026-04-17 08:06 | 43.63553 | 18.65375 | 9469 ft | 302 kts | 289° |
| 2026-04-17 08:06 | 43.64138 | 18.62585 | 8998 ft | 303 kts | 288° |
| 2026-04-17 08:06 | 43.64724 | 18.59791 | 8581 ft | 302 kts | 288° |
| 2026-04-17 08:06 | 43.65303 | 18.57007 | 8161 ft | 301 kts | 288° |
| 2026-04-17 08:07 | 43.65850 | 18.54244 | 7737 ft | 293 kts | 284° |
| 2026-04-17 08:07 | 43.66074 | 18.51490 | 7315 ft | 283 kts | 272° |
| 2026-04-17 08:07 | 43.65925 | 18.48839 | 6919 ft | 274 kts | 262° |
| 2026-04-17 08:07 | 43.65709 | 18.46280 | 6520 ft | 262 kts | 275° |
| 2026-04-17 08:08 | 43.66061 | 18.43903 | 6121 ft | 251 kts | 296° |
| 2026-04-17 08:08 | 43.66954 | 18.41895 | 5735 ft | 240 kts | 316° |
| 2026-04-17 08:08 | 43.68217 | 18.40465 | 5374 ft | 230 kts | 334° |
| 2026-04-17 08:08 | 43.69661 | 18.39630 | 5022 ft | 222 kts | 350° |
| 2026-04-17 08:09 | 43.71132 | 18.39377 | 4683 ft | 207 kts | 3° |
| 2026-04-17 08:09 | 43.72542 | 18.39547 | 4382 ft | 202 kts | 6° |
| 2026-04-17 08:09 | 43.73903 | 18.39728 | 4105 ft | 191 kts | 5° |
| 2026-04-17 08:09 | 43.75177 | 18.39892 | 3821 ft | 176 kts | 5° |
| 2026-04-17 08:10 | 43.76323 | 18.40037 | 3574 ft | 159 kts | 6° |
| 2026-04-17 08:10 | 43.77372 | 18.40172 | 3315 ft | 144 kts | 6° |
| 2026-04-17 08:10 | 43.78387 | 18.40139 | 3097 ft | 144 kts | 350° |
| 2026-04-17 08:10 | 43.79311 | 18.39705 | 2879 ft | 139 kts | 334° |
| 2026-04-17 08:11 | 43.80098 | 18.38932 | 2642 ft | 139 kts | 317° |
| 2026-04-17 08:11 | 43.80698 | 18.37868 | 2434 ft | 141 kts | 302° |
| 2026-04-17 08:11 | 43.81148 | 18.36660 | 2184 ft | 140 kts | 298° |
| 2026-04-17 08:11 | 43.81584 | 18.35478 | 1979 ft | 135 kts | 298° |
| 2026-04-17 08:12 | 43.82013 | 18.34322 | 1738 ft | 134 kts | 298° |
| 2026-04-17 08:12 | 43.82409 | 18.33270 | 1689 ft | 97 kts | 298° |
| 2026-04-17 08:12 | 43.82581 | 18.32820 | 1685 ft | 9 kts | 297° |
| 2026-04-17 08:12 | 43.82597 | 18.32776 | 1681 ft | 6 kts | 297° |
| 2026-04-17 08:13 | 43.82628 | 18.32696 | 1678 ft | 14 kts | 297° |
| 2026-04-17 08:13 | 43.82688 | 18.32538 | 1683 ft | 23 kts | 298° |
| 2026-04-17 08:13 | 43.82773 | 18.32314 | 1674 ft | 30 kts | 297° |
| 2026-04-17 08:14 | 43.82956 | 18.31785 | 1660 ft | 18 kts | 285° |
| 2026-04-17 08:14 | 43.82995 | 18.31733 | 1668 ft | 2 kts | 71° |
| 2026-04-17 08:14 | 43.82978 | 18.31779 | 1657 ft | 9 kts | 119° |
| 2026-04-17 08:14 | 43.82936 | 18.31883 | 1667 ft | 16 kts | 119° |
| 2026-04-17 08:15 | 43.82870 | 18.32049 | 1669 ft | 23 kts | 117° |
| 2026-04-17 08:15 | 43.82788 | 18.32267 | 1677 ft | 28 kts | 118° |
| 2026-04-17 08:15 | 43.82689 | 18.32531 | 1680 ft | 33 kts | 117° |
| 2026-04-17 08:15 | 43.82575 | 18.32836 | 1685 ft | 37 kts | 117° |
| 2026-04-17 08:16 | 43.82503 | 18.33131 | 1684 ft | 30 kts | 83° |
| 2026-04-17 08:16 | 43.82551 | 18.33320 | 1681 ft | 12 kts | 71° |
| 2026-04-17 08:16 | 43.82562 | 18.33390 | 1689 ft | 4 kts | 33° |
| 2026-04-17 08:16 | 43.82579 | 18.33406 | 1677 ft | 2 kts | 31° |
| 2026-04-17 08:17 | 43.82589 | 18.33413 | 1680 ft | 1 kts | 28° |
| 2026-04-17 08:17 | 43.82591 | 18.33416 | 1680 ft | 0 kts | 39° |
| 2026-04-17 08:17 | 43.82596 | 18.33432 | 1680 ft | 1 kts | 75° |
| 2026-04-17 08:17 | 43.82596 | 18.33436 | 1679 ft | 1 kts | 74° |
| 2026-04-17 08:18 | 43.82597 | 18.33439 | 1679 ft | 0 kts | 75° |